Time;durP1;ratioP1;P1;durP2;ratioP2;P2;SDS_P1;SDS_P2;PMS_P1;PMS_P2;Temp;Humidity;BMP_temperature;BMP_pressure;BME280_temperature;BME280_humidity;BME280_pressure;Samples;Min_cycle;Max_cycle;Signal;HPM_P1;HPM_P2
2021/04/30 00:00:21;;;;;;;17.20;13.60;;;;;;;13.44;65.60;99401.31;106024;1104;78380;-60
2021/04/30 00:02:46;;;;;;;19.20;12.50;;;;;;;13.44;65.70;99395.89;106056;1104;78788;-60
2021/04/30 00:04:52;;;;;;;16.30;12.50;;;;;;;13.39;65.92;99389.50;106029;1104;78262;-63
2021/04/30 00:06:57;;;;;;;16.40;12.30;;;;;;;13.38;65.95;99391.38;106053;1105;77819;-63
2021/04/30 00:09:03;;;;;;;17.50;12.50;;;;;;;13.40;65.85;99392.00;106012;1104;78253;-60
2021/04/30 00:11:10;;;;;;;14.80;12.40;;;;;;;13.38;65.93;99391.38;106052;1100;77991;-60
2021/04/30 00:13:16;;;;;;;14.80;12.00;;;;;;;13.36;65.98;99388.09;106067;1098;78703;-61
2021/04/30 00:15:22;;;;;;;16.60;12.00;;;;;;;13.35;65.91;99394.55;106020;1104;79780;-60
2021/04/30 00:17:27;;;;;;;18.10;12.30;;;;;;;13.32;65.94;99389.59;106036;1104;78586;-60
2021/04/30 00:19:32;;;;;;;16.20;12.20;;;;;;;13.31;66.01;99395.27;106022;1104;78993;-63
2021/04/30 00:21:37;;;;;;;14.10;11.00;;;;;;;13.30;66.29;99389.00;106028;1104;78801;-63
2021/04/30 00:23:42;;;;;;;15.50;11.70;;;;;;;13.27;66.37;99400.31;106050;1104;76899;-60
2021/04/30 00:25:47;;;;;;;15.20;11.60;;;;;;;13.23;66.51;99404.56;106022;1105;78535;-60
2021/04/30 00:27:55;;;;;;;16.90;12.70;;;;;;;13.18;66.50;99400.88;106058;1099;77254;-60
2021/04/30 00:30:00;;;;;;;14.30;11.30;;;;;;;13.22;66.61;99413.74;106033;1105;77366;-60
2021/04/30 00:32:08;;;;;;;13.40;10.30;;;;;;;13.24;66.71;99405.39;106038;1099;77900;-60
2021/04/30 00:34:13;;;;;;;14.70;11.00;;;;;;;13.26;66.68;99405.98;106047;1104;78697;-63
2021/04/30 00:36:18;;;;;;;15.00;10.80;;;;;;;13.23;66.73;99409.98;106022;1104;77574;-63
2021/04/30 00:38:23;;;;;;;13.30;10.40;;;;;;;13.21;66.79;99401.23;106063;1104;78325;-63
2021/04/30 00:40:29;;;;;;;11.20;9.20;;;;;;;13.22;66.69;99392.05;106061;1104;78630;-63
2021/04/30 00:42:34;;;;;;;13.00;9.70;;;;;;;13.17;66.52;99391.91;106011;1104;77954;-63
2021/04/30 00:44:44;;;;;;;12.90;8.90;;;;;;;13.16;66.70;99395.67;106035;1104;78475;-60
2021/04/30 00:46:49;;;;;;;11.70;9.00;;;;;;;13.17;66.68;99394.63;106048;1104;78551;-60
2021/04/30 00:48:54;;;;;;;11.40;8.70;;;;;;;13.15;66.74;99401.34;106029;1104;76904;-60
2021/04/30 00:50:59;;;;;;;10.40;8.70;;;;;;;13.07;66.75;99405.21;106031;1104;77948;-60
2021/04/30 00:53:06;;;;;;;10.10;8.60;;;;;;;13.00;66.80;99410.67;106023;1104;77052;-60
2021/04/30 00:55:13;;;;;;;10.90;9.00;;;;;;;12.98;66.78;99422.81;106030;1104;77676;-60
2021/04/30 00:57:19;;;;;;;10.00;8.50;;;;;;;12.97;66.79;99423.85;106032;1104;79015;-60
2021/04/30 00:59:24;;;;;;;10.90;8.00;;;;;;;12.94;66.91;99421.59;106037;1104;78148;-62
2021/04/30 01:01:33;;;;;;;10.40;8.20;;;;;;;12.93;66.91;99426.22;106054;1104;78557;-62
2021/04/30 01:03:38;;;;;;;11.90;9.00;;;;;;;12.90;67.04;99421.25;106034;1104;78687;-60
2021/04/30 01:05:43;;;;;;;11.50;7.40;;;;;;;12.88;67.28;99422.53;106058;1104;77092;-60
2021/04/30 01:07:48;;;;;;;9.20;7.60;;;;;;;12.92;67.00;99418.30;106031;1104;78870;-60
2021/04/30 01:09:55;;;;;;;9.80;8.20;;;;;;;12.92;67.18;99416.42;106015;1105;77389;-63
2021/04/30 01:12:01;;;;;;;9.60;8.00;;;;;;;12.90;67.00;99409.58;106056;1098;77875;-63
2021/04/30 01:14:06;;;;;;;10.50;7.80;;;;;;;12.88;67.26;99411.69;106052;1104;78756;-62
2021/04/30 01:16:11;;;;;;;10.50;7.60;;;;;;;12.87;67.06;99418.16;106037;1104;78419;-63
2021/04/30 01:18:16;;;;;;;10.00;7.00;;;;;;;12.86;67.16;99420.03;106030;1104;78916;-61
2021/04/30 01:20:22;;;;;;;9.90;7.20;;;;;;;12.87;67.30;99415.45;106054;1104;79658;-60
2021/04/30 01:22:38;;;;;;;10.80;7.80;;;;;;;12.88;67.13;99419.83;106044;1105;77718;-60
2021/04/30 01:24:43;;;;;;;7.90;7.10;;;;;;;12.90;67.17;99414.99;106033;1098;77299;-62
2021/04/30 01:26:48;;;;;;;9.20;6.80;;;;;;;12.87;67.22;99404.60;106041;1104;77052;-62
2021/04/30 01:28:54;;;;;;;8.10;6.80;;;;;;;12.88;67.41;99414.41;106052;1104;78171;-62
2021/04/30 01:30:59;;;;;;;8.30;6.70;;;;;;;12.85;67.35;99414.86;106029;1099;77304;-62
2021/04/30 01:33:16;;;;;;;7.80;6.60;;;;;;;12.84;67.38;99413.19;106030;1105;77612;-62
2021/04/30 01:35:25;;;;;;;9.30;6.70;;;;;;;12.84;67.48;99419.44;106028;1104;78546;-60
2021/04/30 01:37:31;;;;;;;10.20;7.10;;;;;;;12.84;67.49;99414.02;106070;1104;78791;-60
2021/04/30 01:39:36;;;;;;;7.60;6.00;;;;;;;12.84;67.50;99421.32;106053;1104;77086;-63
2021/04/30 01:41:42;;;;;;;8.50;6.30;;;;;;;12.85;67.44;99422.98;106033;1104;79412;-63
2021/04/30 01:43:47;;;;;;;7.40;6.00;;;;;;;12.84;67.37;99421.32;106029;1104;78487;-59
2021/04/30 01:45:56;;;;;;;7.60;6.00;;;;;;;12.81;67.37;99427.19;106041;1104;78763;-60
2021/04/30 01:48:02;;;;;;;9.00;6.30;;;;;;;12.78;67.35;99424.94;106031;1104;78768;-59
2021/04/30 01:50:12;;;;;;;6.80;5.90;;;;;;;12.79;67.35;99426.59;106047;1104;77303;-63
2021/04/30 01:52:17;;;;;;;8.30;5.80;;;;;;;12.80;67.31;99425.56;106041;1104;77218;-63
2021/04/30 01:54:22;;;;;;;7.50;6.10;;;;;;;12.79;67.37;99429.31;106056;1098;78767;-63
2021/04/30 01:56:27;;;;;;;6.50;5.60;;;;;;;12.79;67.34;99434.73;106064;1104;77532;-63
2021/04/30 01:58:33;;;;;;;7.80;6.10;;;;;;;12.75;67.38;99437.05;106042;1105;77206;-60
2021/04/30 02:00:38;;;;;;;6.90;5.70;;;;;;;12.73;67.45;99435.63;106018;1104;77876;-59
2021/04/30 02:02:49;;;;;;;6.80;5.70;;;;;;;12.71;67.33;99438.58;106027;1104;77993;-60
2021/04/30 02:04:54;;;;;;;6.20;5.00;;;;;;;12.71;67.23;99435.88;106033;1104;76873;-59
2021/04/30 02:06:59;;;;;;;6.60;5.90;;;;;;;12.70;67.38;99438.79;106046;1099;77553;-59
2021/04/30 02:09:06;;;;;;;7.90;5.40;;;;;;;12.70;67.41;99441.50;106044;1104;76781;-63
2021/04/30 02:11:11;;;;;;;6.20;5.10;;;;;;;12.68;67.45;99439.03;106027;1104;78384;-63
2021/04/30 02:13:16;;;;;;;7.20;5.00;;;;;;;12.68;67.48;99435.48;106026;1098;76652;-62
2021/04/30 02:15:24;;;;;;;6.90;5.80;;;;;;;12.64;67.36;99434.27;106055;1104;76905;-63
2021/04/30 02:17:31;;;;;;;7.70;5.90;;;;;;;12.59;67.58;99426.83;106067;1104;77427;-63
2021/04/30 02:19:36;;;;;;;7.40;5.20;;;;;;;12.60;67.59;99425.79;106030;1104;77646;-59
2021/04/30 02:21:41;;;;;;;7.90;5.40;;;;;;;12.60;67.52;99424.95;106055;1104;78418;-59
2021/04/30 02:23:46;;;;;;;6.70;5.40;;;;;;;12.52;67.83;99425.25;106033;1104;77810;-59
2021/04/30 02:25:51;;;;;;;7.40;5.70;;;;;;;12.54;67.74;99425.84;106032;1104;78618;-59
2021/04/30 02:27:59;;;;;;;7.70;5.80;;;;;;;12.52;67.84;99427.97;106038;1104;78311;-59
2021/04/30 02:30:05;;;;;;;7.40;6.50;;;;;;;12.51;67.66;99424.42;106016;1104;79551;-59
2021/04/30 02:32:10;;;;;;;12.50;7.80;;;;;;;12.53;67.68;99421.47;106053;1104;76912;-59
2021/04/30 02:34:15;;;;;;;8.80;7.30;;;;;;;12.50;67.79;99424.66;106048;1104;78551;-59
2021/04/30 02:36:20;;;;;;;10.50;7.70;;;;;;;12.45;67.88;99425.31;106046;1105;78255;-59
2021/04/30 02:38:25;;;;;;;7.70;6.90;;;;;;;12.40;68.00;99423.30;106055;1104;77457;-62
2021/04/30 02:40:32;;;;;;;8.40;6.60;;;;;;;12.38;67.89;99433.53;106010;1104;78829;-63
2021/04/30 02:42:38;;;;;;;7.90;6.50;;;;;;;12.40;68.16;99436.00;106040;1104;78229;-63
2021/04/30 02:44:44;;;;;;;6.90;6.10;;;;;;;12.42;68.12;99439.30;106079;1098;77542;-63
2021/04/30 02:46:49;;;;;;;10.00;6.50;;;;;;;12.43;68.15;99438.27;106028;1104;77869;-63
2021/04/30 02:49:01;;;;;;;8.50;6.60;;;;;;;12.43;68.37;99438.27;106014;1104;76965;-63
2021/04/30 02:51:11;;;;;;;7.50;6.20;;;;;;;12.41;68.28;99433.05;106029;1105;77735;-64
2021/04/30 02:53:16;;;;;;;10.20;6.60;;;;;;;12.39;68.39;99435.17;106058;1104;79409;-63
2021/04/30 02:55:23;;;;;;;8.40;6.70;;;;;;;12.37;68.44;99426.45;106021;1104;78609;-63
2021/04/30 02:57:32;;;;;;;8.40;6.40;;;;;;;12.38;68.51;99429.98;106027;1104;78322;-63
2021/04/30 02:59:37;;;;;;;8.90;6.40;;;;;;;12.37;68.50;99434.58;106045;1104;78244;-63
2021/04/30 03:01:42;;;;;;;7.20;6.10;;;;;;;12.40;68.50;99441.42;106023;1104;78231;-63
2021/04/30 03:03:47;;;;;;;8.00;6.90;;;;;;;12.41;68.55;99452.02;106021;1104;78539;-60
2021/04/30 03:05:52;;;;;;;8.10;6.70;;;;;;;12.39;68.54;99451.42;106042;1104;78781;-59
2021/04/30 03:07:57;;;;;;;9.30;7.00;;;;;;;12.41;68.41;99460.14;106032;1104;77628;-59
2021/04/30 03:10:02;;;;;;;8.00;7.20;;;;;;;12.38;68.48;99454.37;106047;1104;77141;-65
2021/04/30 03:12:09;;;;;;;9.60;7.50;;;;;;;12.36;68.43;99457.28;106032;1104;77291;-64
2021/04/30 03:14:14;;;;;;;9.40;7.20;;;;;;;12.34;68.51;99461.27;106053;1104;76990;-65
2021/04/30 03:16:19;;;;;;;9.60;8.00;;;;;;;12.32;68.44;99466.92;106019;1104;78114;-64
2021/04/30 03:18:24;;;;;;;8.60;7.00;;;;;;;12.25;68.54;99455.31;106025;1104;77608;-64
2021/04/30 03:20:29;;;;;;;8.80;7.90;;;;;;;12.23;68.65;99462.83;106025;1104;77392;-62
2021/04/30 03:22:34;;;;;;;11.60;7.50;;;;;;;12.21;68.63;99464.11;106059;1104;78232;-63
2021/04/30 03:24:39;;;;;;;8.60;7.40;;;;;;;12.19;68.66;99461.64;106024;1104;77551;-63
2021/04/30 03:26:44;;;;;;;8.70;7.30;;;;;;;12.17;68.70;99458.30;106054;1104;78305;-63
2021/04/30 03:28:49;;;;;;;9.90;7.50;;;;;;;12.13;68.65;99458.98;106033;1104;77363;-61
2021/04/30 03:30:54;;;;;;;9.50;7.60;;;;;;;12.10;68.79;99456.72;106011;1104;79225;-59
2021/04/30 03:32:59;;;;;;;9.00;8.20;;;;;;;12.07;68.82;99463.41;106038;1104;79364;-59
2021/04/30 03:35:06;;;;;;;9.40;7.30;;;;;;;12.02;68.78;99471.36;106058;1104;77801;-59
2021/04/30 03:37:11;;;;;;;9.30;7.00;;;;;;;12.00;68.92;99473.47;106035;1105;78649;-59
2021/04/30 03:39:16;;;;;;;9.30;7.70;;;;;;;11.98;68.99;99475.55;106053;1104;78673;-59
2021/04/30 03:41:22;;;;;;;8.20;7.30;;;;;;;11.96;69.04;99479.52;106056;1098;78414;-59
2021/04/30 03:43:27;;;;;;;11.10;8.10;;;;;;;11.96;69.08;99480.36;106051;1104;78706;-62
2021/04/30 03:45:32;;;;;;;9.70;7.60;;;;;;;11.98;69.01;99480.96;106030;1104;77430;-63
2021/04/30 03:47:37;;;;;;;9.50;7.70;;;;;;;12.00;69.19;99500.54;106044;1104;77856;-63
2021/04/30 03:49:42;;;;;;;9.50;7.60;;;;;;;12.00;69.18;99495.13;106053;1105;78718;-63
2021/04/30 03:51:47;;;;;;;9.20;7.80;;;;;;;12.04;69.05;99507.16;106040;1104;78624;-63
2021/04/30 03:53:55;;;;;;;9.10;7.90;;;;;;;12.05;69.14;99507.98;106037;1105;78091;-59
2021/04/30 03:56:00;;;;;;;10.60;7.40;;;;;;;12.04;69.13;99507.16;106047;1105;77199;-59
2021/04/30 03:58:05;;;;;;;9.80;7.50;;;;;;;12.05;69.16;99511.53;106042;1104;77509;-59
2021/04/30 04:00:15;;;;;;;8.80;7.20;;;;;;;12.07;69.14;99517.55;106026;1104;78339;-63
2021/04/30 04:02:20;;;;;;;9.40;7.70;;;;;;;12.11;69.01;99512.53;106050;1104;78999;-63
2021/04/30 04:04:26;;;;;;;8.60;7.60;;;;;;;12.13;69.15;99515.83;106028;1104;78021;-59
2021/04/30 04:06:31;;;;;;;10.20;7.30;;;;;;;12.15;69.11;99521.84;106009;1105;77633;-59
2021/04/30 04:08:36;;;;;;;8.90;7.00;;;;;;;12.16;69.01;99520.81;106047;1104;78994;-59
2021/04/30 04:10:41;;;;;;;8.60;6.70;;;;;;;12.19;68.99;99526.63;106046;1104;78063;-59
2021/04/30 04:12:46;;;;;;;8.40;6.80;;;;;;;12.17;69.04;99517.03;106052;1104;77105;-59
2021/04/30 04:14:54;;;;;;;8.20;7.10;;;;;;;12.19;68.89;99518.50;106034;1098;76903;-62
2021/04/30 04:16:59;;;;;;;8.10;6.90;;;;;;;12.24;68.94;99526.78;106032;1104;78705;-65
2021/04/30 04:19:04;;;;;;;8.50;6.80;;;;;;;12.29;68.81;99529.65;106037;1104;78457;-61
2021/04/30 04:21:09;;;;;;;7.70;6.40;;;;;;;12.28;68.64;99532.56;106020;1104;78597;-59
2021/04/30 04:23:15;;;;;;;7.40;6.60;;;;;;;12.28;68.58;99536.11;106026;1104;77056;-61
2021/04/30 04:25:20;;;;;;;9.20;6.40;;;;;;;12.22;68.66;99536.18;106039;1104;77296;-62
2021/04/30 04:27:25;;;;;;;7.40;6.50;;;;;;;12.19;68.59;99536.63;106041;1098;77606;-61
2021/04/30 04:29:30;;;;;;;7.60;6.50;;;;;;;12.19;68.44;99547.45;106041;1105;77917;-64
2021/04/30 04:31:36;;;;;;;7.30;6.60;;;;;;;12.17;68.67;99544.95;106041;1104;78149;-64
2021/04/30 04:33:41;;;;;;;8.80;6.70;;;;;;;12.16;68.54;99540.59;106026;1103;78908;-60
2021/04/30 04:35:46;;;;;;;8.30;6.60;;;;;;;12.19;68.49;99539.33;106059;1104;78796;-60
2021/04/30 04:37:51;;;;;;;8.80;6.50;;;;;;;12.26;68.44;99546.34;106031;1104;78482;-61
2021/04/30 04:39:59;;;;;;;6.90;6.20;;;;;;;12.27;68.33;99545.30;106052;1105;77389;-63
2021/04/30 04:42:07;;;;;;;10.00;7.10;;;;;;;12.29;68.38;99543.19;106047;1105;78193;-63
2021/04/30 04:44:15;;;;;;;7.10;5.90;;;;;;;12.34;68.40;99542.52;106060;1104;77114;-63
2021/04/30 04:46:23;;;;;;;7.70;6.50;;;;;;;12.48;68.27;99548.64;106049;1099;78577;-64
2021/04/30 04:48:28;;;;;;;7.60;6.40;;;;;;;12.74;68.50;99540.28;106080;1098;78113;-60
2021/04/30 04:50:33;;;;;;;10.00;7.10;;;;;;;14.56;69.65;99535.27;106024;1104;77938;-61
2021/04/30 04:52:41;;;;;;;7.20;6.20;;;;;;;16.70;67.64;99529.95;106057;1098;77130;-60
2021/04/30 04:54:49;;;;;;;7.80;6.10;;;;;;;18.37;64.69;99532.77;106055;1104;78353;-64
2021/04/30 04:56:54;;;;;;;8.20;6.30;;;;;;;19.22;61.84;99532.53;106017;1104;77671;-64
2021/04/30 04:58:59;;;;;;;7.80;6.10;;;;;;;20.00;60.47;99533.34;106017;1103;78069;-64
2021/04/30 05:01:06;;;;;;;8.10;5.90;;;;;;;20.88;58.38;99544.89;106025;1104;77649;-64
2021/04/30 05:03:14;;;;;;;8.60;6.40;;;;;;;22.04;56.44;99542.56;106026;1104;78521;-65
2021/04/30 05:05:19;;;;;;;7.50;5.20;;;;;;;22.83;54.00;99544.16;106046;1104;78011;-65
2021/04/30 05:07:24;;;;;;;7.40;5.50;;;;;;;23.73;52.61;99544.27;106037;1105;78223;-64
2021/04/30 05:09:29;;;;;;;7.70;5.10;;;;;;;24.28;49.56;99543.46;106042;1104;78882;-60
2021/04/30 05:11:37;;;;;;;7.70;5.30;;;;;;;23.97;47.95;99540.33;106037;1104;77011;-59
2021/04/30 05:13:42;;;;;;;7.40;5.00;;;;;;;24.40;47.67;99548.53;106025;1105;77018;-59
2021/04/30 05:15:50;;;;;;;7.60;6.10;;;;;;;24.59;46.78;99552.08;106042;1104;78415;-59
2021/04/30 05:17:58;;;;;;;6.90;5.90;;;;;;;24.90;45.72;99553.23;106034;1104;79783;-59
2021/04/30 05:20:03;;;;;;;6.60;5.10;;;;;;;25.27;45.33;99556.98;106054;1104;78157;-64
2021/04/30 05:22:11;;;;;;;8.60;5.60;;;;;;;25.68;43.47;99555.06;106051;1104;78770;-58
2021/04/30 05:24:16;;;;;;;10.70;5.90;;;;;;;26.35;42.97;99556.86;106056;1104;77545;-59
2021/04/30 05:26:21;;;;;;;6.60;5.40;;;;;;;27.16;41.21;99549.28;106029;1104;79040;-60
2021/04/30 05:28:26;;;;;;;5.50;4.80;;;;;;;27.41;39.58;99556.11;106048;1104;78427;-59
2021/04/30 05:30:34;;;;;;;6.20;5.10;;;;;;;27.77;39.44;99550.34;106040;1099;76776;-61
2021/04/30 05:32:39;;;;;;;6.40;5.00;;;;;;;27.88;38.32;99549.69;106023;1105;77535;-60
2021/04/30 05:34:47;;;;;;;5.10;4.70;;;;;;;27.07;38.54;99551.18;106033;1105;78649;-59
2021/04/30 05:36:52;;;;;;;5.80;5.20;;;;;;;27.38;37.99;99551.98;106040;1104;77083;-59
2021/04/30 05:38:57;;;;;;;6.80;5.10;;;;;;;26.65;36.83;99552.52;105994;1104;78864;-59
2021/04/30 05:41:02;;;;;;;7.80;5.50;;;;;;;25.22;37.56;99560.64;106024;1105;77499;-60
2021/04/30 05:43:07;;;;;;;7.20;5.80;;;;;;;23.79;38.19;99560.43;106048;1103;78897;-59
2021/04/30 05:45:16;;;;;;;6.70;5.40;;;;;;;22.84;39.45;99560.41;106036;1104;78069;-59
2021/04/30 05:47:24;;;;;;;8.90;6.00;;;;;;;23.34;40.60;99574.77;106055;1104;76982;-59
2021/04/30 05:49:29;;;;;;;6.20;5.70;;;;;;;24.68;39.87;99563.27;106028;1105;79049;-60
2021/04/30 05:51:37;;;;;;;7.90;5.90;;;;;;;25.91;38.52;99565.05;106035;1105;79144;-68
2021/04/30 05:53:45;;;;;;;6.60;5.00;;;;;;;27.00;37.78;99561.92;106045;1104;77399;-60
2021/04/30 05:55:51;;;;;;;6.90;5.40;;;;;;;27.99;36.35;99561.33;106042;1104;79025;-61
2021/04/30 05:57:56;;;;;;;8.30;6.20;;;;;;;28.78;34.44;99559.08;106042;1104;78188;-67
2021/04/30 06:00:01;;;;;;;8.70;6.40;;;;;;;29.31;33.31;99574.52;106032;1104;79234;-68
2021/04/30 06:02:09;;;;;;;7.80;5.50;;;;;;;29.48;33.57;99566.08;106037;1104;78985;-67
2021/04/30 06:04:14;;;;;;;8.20;6.10;;;;;;;30.05;31.68;99566.45;106029;1104;76943;-60
2021/04/30 06:06:19;;;;;;;5.90;5.40;;;;;;;30.17;31.70;99572.91;106034;1105;78556;-60
2021/04/30 06:08:24;;;;;;;7.90;5.90;;;;;;;30.35;31.30;99576.39;106030;1104;78022;-64
2021/04/30 06:10:29;;;;;;;7.90;5.80;;;;;;;30.21;31.35;99575.84;106022;1104;78967;-64
2021/04/30 06:12:37;;;;;;;6.10;5.50;;;;;;;30.72;29.82;99575.42;106020;1104;77305;-65
2021/04/30 06:14:45;;;;;;;7.10;5.70;;;;;;;30.93;29.28;99576.22;106055;1104;78045;-65
2021/04/30 06:16:53;;;;;;;6.10;5.50;;;;;;;30.63;29.33;99590.63;106041;1104;78573;-65
2021/04/30 06:18:58;;;;;;;6.50;5.70;;;;;;;29.29;29.80;99582.36;106049;1103;78062;-60
2021/04/30 06:21:04;;;;;;;7.50;6.20;;;;;;;27.94;30.66;99580.89;106036;1104;77286;-60
2021/04/30 06:23:14;;;;;;;7.70;5.90;;;;;;;27.39;31.80;99580.52;106075;1104;78207;-60
2021/04/30 06:25:22;;;;;;;6.70;5.90;;;;;;;26.67;32.39;99591.81;106035;1104;77938;-64
2021/04/30 06:27:27;;;;;;;6.80;5.60;;;;;;;26.87;32.77;99590.52;106040;1105;77137;-64
2021/04/30 06:29:32;;;;;;;7.20;6.10;;;;;;;26.34;32.54;99591.22;106023;1104;77968;-60
2021/04/30 06:31:38;;;;;;;7.80;6.30;;;;;;;25.80;33.41;99592.13;106052;1104;78000;-60
2021/04/30 06:33:43;;;;;;;6.20;5.30;;;;;;;26.30;33.44;99595.77;106041;1104;78098;-60
2021/04/30 06:35:48;;;;;;;9.00;6.90;;;;;;;26.54;32.84;99591.87;106034;1104;77405;-60
2021/04/30 06:37:54;;;;;;;7.30;6.60;;;;;;;26.34;33.11;99595.97;106021;1104;78633;-60
2021/04/30 06:40:02;;;;;;;7.70;5.10;;;;;;;26.20;32.87;99600.72;106078;1104;76940;-64
2021/04/30 06:42:08;;;;;;;6.50;5.80;;;;;;;26.14;32.77;99599.19;106037;1105;77632;-64
2021/04/30 06:44:13;;;;;;;7.90;6.20;;;;;;;26.28;32.64;99608.28;106061;1105;78083;-60
2021/04/30 06:46:19;;;;;;;8.60;6.10;;;;;;;26.23;32.58;99609.20;106018;1105;78318;-60
2021/04/30 06:48:24;;;;;;;6.60;5.90;;;;;;;26.03;32.87;99609.64;106035;1104;78280;-60
2021/04/30 06:50:29;;;;;;;6.30;5.70;;;;;;;26.31;32.83;99610.44;106031;1105;78546;-60
2021/04/30 06:52:39;;;;;;;6.70;6.00;;;;;;;27.09;32.25;99596.03;106048;1104;78048;-61
2021/04/30 06:54:44;;;;;;;8.10;5.40;;;;;;;27.67;31.20;99601.40;106035;1104;76751;-59
2021/04/30 06:56:52;;;;;;;10.00;6.60;;;;;;;28.21;30.35;99599.28;106025;1104;78281;-59
2021/04/30 06:59:00;;;;;;;6.40;5.80;;;;;;;28.20;30.54;99601.24;106053;1104;77581;-63
2021/04/30 07:01:06;;;;;;;6.20;5.60;;;;;;;28.01;30.22;99611.80;106045;1104;77045;-64
2021/04/30 07:03:14;;;;;;;6.40;5.70;;;;;;;28.78;30.32;99599.97;106039;1105;77075;-63
2021/04/30 07:05:20;;;;;;;6.30;5.70;;;;;;;29.66;29.28;99604.66;106035;1104;78478;-64
2021/04/30 07:07:29;;;;;;;5.80;5.30;;;;;;;29.43;27.92;99605.23;106061;1104;77397;-64
2021/04/30 07:09:34;;;;;;;6.90;5.80;;;;;;;29.80;27.68;99607.24;106074;1104;78877;-65
2021/04/30 07:11:41;;;;;;;6.20;5.60;;;;;;;29.51;28.07;99599.63;106049;1105;78850;-64
2021/04/30 07:13:50;;;;;;;5.90;5.00;;;;;;;30.19;27.69;99608.81;106048;1104;79339;-65
2021/04/30 07:15:55;;;;;;;6.10;5.60;;;;;;;30.02;27.26;99614.48;106038;1104;79612;-64
2021/04/30 07:18:01;;;;;;;6.60;5.50;;;;;;;30.50;26.83;99619.58;106026;1105;78048;-66
2021/04/30 07:20:09;;;;;;;9.30;8.40;;;;;;;30.98;27.03;99608.69;106039;1104;78536;-60
2021/04/30 07:22:14;;;;;;;11.60;9.60;;;;;;;31.82;26.55;99619.22;106059;1104;77173;-60
2021/04/30 07:24:19;;;;;;;6.50;5.80;;;;;;;32.07;26.14;99620.87;106024;1098;77356;-64
2021/04/30 07:26:24;;;;;;;6.90;6.00;;;;;;;32.93;25.03;99618.69;106044;1104;78238;-65
2021/04/30 07:28:29;;;;;;;8.50;6.40;;;;;;;32.97;24.29;99617.61;106033;1105;78961;-61
2021/04/30 07:30:34;;;;;;;11.60;6.20;;;;;;;33.01;24.16;99615.73;106025;1104;77381;-61
2021/04/30 07:32:40;;;;;;;6.90;5.90;;;;;;;32.99;23.91;99617.27;106046;1103;77155;-61
2021/04/30 07:34:48;;;;;;;6.40;5.80;;;;;;;32.96;23.32;99629.99;106058;1104;79047;-64
2021/04/30 07:36:53;;;;;;;7.20;5.30;;;;;;;33.21;23.72;99630.72;106037;1104;78787;-65
2021/04/30 07:38:59;;;;;;;6.50;5.50;;;;;;;33.46;23.44;99625.78;106000;1104;79046;-65
2021/04/30 07:41:04;;;;;;;6.40;5.80;;;;;;;33.60;22.99;99623.36;106032;1104;77668;-66
2021/04/30 07:43:13;;;;;;;7.70;5.90;;;;;;;33.40;21.33;99627.22;106058;1104;77643;-65
2021/04/30 07:45:21;;;;;;;7.30;5.90;;;;;;;33.28;22.39;99630.90;106028;1104;79059;-65
2021/04/30 07:47:30;;;;;;;6.80;6.20;;;;;;;32.82;22.90;99634.36;106037;1098;77490;-65
2021/04/30 07:49:36;;;;;;;6.80;6.20;;;;;;;33.05;22.89;99636.26;106039;1104;78996;-65
2021/04/30 07:51:42;;;;;;;7.20;6.50;;;;;;;33.00;22.54;99630.89;106019;1104;76574;-65
2021/04/30 07:53:47;;;;;;;6.90;6.20;;;;;;;33.26;23.11;99624.85;106039;1105;79315;-65
2021/04/30 07:55:52;;;;;;;8.90;8.00;;;;;;;33.52;21.99;99633.54;106031;1099;78519;-65
2021/04/30 07:57:57;;;;;;;8.50;7.60;;;;;;;33.47;22.57;99635.80;106019;1104;76935;-65
2021/04/30 08:00:09;;;;;;;7.90;7.20;;;;;;;33.86;22.49;99622.81;106041;1104;77681;-62
2021/04/30 08:02:14;;;;;;;8.20;7.30;;;;;;;34.14;21.95;99629.97;106052;1104;78736;-62
2021/04/30 08:04:22;;;;;;;8.60;7.80;;;;;;;34.27;22.28;99634.27;106055;1105;78659;-62
2021/04/30 08:06:27;;;;;;;8.60;7.90;;;;;;;34.34;21.20;99631.62;106015;1104;78951;-62
2021/04/30 08:08:33;;;;;;;8.90;8.00;;;;;;;33.01;21.68;99626.93;106023;1097;77757;-62
2021/04/30 08:10:41;;;;;;;8.10;7.40;;;;;;;32.99;22.12;99628.46;106020;1103;78679;-61
2021/04/30 08:12:49;;;;;;;7.80;7.10;;;;;;;32.80;21.33;99637.49;106052;1104;78077;-62
2021/04/30 08:14:54;;;;;;;7.50;6.90;;;;;;;30.70;21.83;99639.11;106029;1105;77201;-65
2021/04/30 08:16:59;;;;;;;7.30;6.60;;;;;;;29.28;23.09;99637.22;106024;1104;77677;-65
2021/04/30 08:19:05;;;;;;;7.10;6.00;;;;;;;29.11;23.98;99638.05;106018;1099;77312;-62
2021/04/30 08:21:13;;;;;;;7.10;5.20;;;;;;;30.00;24.25;99636.27;106054;1104;76815;-61
2021/04/30 08:23:18;;;;;;;6.20;5.50;;;;;;;30.59;23.91;99637.88;106030;1104;77887;-62
2021/04/30 08:25:24;;;;;;;5.90;5.30;;;;;;;30.92;23.91;99635.98;106055;1104;78001;-61
2021/04/30 08:27:29;;;;;;;6.50;4.80;;;;;;;31.19;22.41;99642.11;106050;1105;76974;-62
2021/04/30 08:29:37;;;;;;;5.60;4.50;;;;;;;30.28;21.75;99645.78;106051;1104;78759;-65
2021/04/30 08:31:42;;;;;;;5.90;5.30;;;;;;;29.94;22.53;99648.78;106012;1105;77525;-63
2021/04/30 08:33:52;;;;;;;6.20;5.50;;;;;;;30.05;22.35;99652.82;106017;1104;78757;-65
2021/04/30 08:36:00;;;;;;;4.80;4.40;;;;;;;29.27;22.34;99652.27;106036;1104;78556;-64
2021/04/30 08:38:10;;;;;;;7.10;5.50;;;;;;;28.91;23.27;99655.41;106056;1104;79237;-64
2021/04/30 08:40:19;;;;;;;5.70;5.10;;;;;;;29.21;22.99;99654.41;106014;1104;78510;-61
2021/04/30 08:42:24;;;;;;;8.30;5.60;;;;;;;29.93;23.84;99649.92;106038;1104;78493;-61
2021/04/30 08:44:29;;;;;;;5.90;5.30;;;;;;;30.31;23.67;99645.11;106037;1104;78193;-61
2021/04/30 08:46:35;;;;;;;5.70;4.90;;;;;;;30.82;22.58;99660.67;106026;1104;78671;-61
2021/04/30 08:48:41;;;;;;;6.10;5.00;;;;;;;30.94;22.07;99661.56;106046;1104;78751;-65
2021/04/30 08:50:50;;;;;;;6.20;5.40;;;;;;;30.46;22.68;99666.03;106018;1104;77857;-65
2021/04/30 08:53:03;;;;;;;7.30;6.00;;;;;;;30.12;23.24;99667.03;106043;1104;78159;-61
2021/04/30 08:55:14;;;;;;;6.80;6.20;;;;;;;30.17;22.84;99661.25;106022;1104;77016;-65
2021/04/30 08:57:24;;;;;;;12.60;5.70;;;;;;;30.49;22.56;99668.15;105968;1104;77350;-65
2021/04/30 08:59:31;;;;;;;5.70;5.20;;;;;;;30.12;21.15;99672.60;106012;1104;78834;-65
2021/04/30 09:01:41;;;;;;;5.70;4.90;;;;;;;29.68;22.64;99683.09;106018;1104;78940;-64
2021/04/30 09:03:51;;;;;;;5.60;4.90;;;;;;;30.06;22.42;99674.76;106073;1100;77085;-61
2021/04/30 09:06:00;;;;;;;7.10;6.30;;;;;;;29.97;22.67;99673.19;106035;1098;78688;-65
2021/04/30 09:08:06;;;;;;;6.60;6.00;;;;;;;29.83;22.86;99680.95;106035;1104;78673;-64
2021/04/30 09:10:15;;;;;;;6.90;6.30;;;;;;;30.06;23.31;99680.33;106047;1104;78527;-62
2021/04/30 09:12:24;;;;;;;6.70;6.10;;;;;;;30.18;22.45;99677.66;106021;1104;77270;-60
2021/04/30 09:14:35;;;;;;;6.30;5.70;;;;;;;29.49;22.54;99682.66;106021;1104;79818;-62
2021/04/30 09:17:09;;;;;;;6.30;5.70;;;;;;;29.35;24.00;99676.48;106027;1104;76862;-62
2021/04/30 09:19:13;;;;;;;7.40;6.60;;;;;;;29.49;23.10;99682.66;106040;1097;77743;-62
2021/04/30 09:21:18;;;;;;;7.40;6.50;;;;;;;29.10;22.99;99685.64;106017;1100;77939;-62
2021/04/30 09:23:42;;;;;;;6.70;6.10;;;;;;;27.48;23.25;99684.08;106035;1104;78276;-64
2021/04/30 09:25:50;;;;;;;8.30;7.10;;;;;;;27.27;23.82;99700.42;106030;1104;78185;-61
2021/04/30 09:27:57;;;;;;;8.70;7.40;;;;;;;26.91;24.53;99700.48;106044;1104;79830;-64
2021/04/30 09:30:25;;;;;;;9.20;7.40;;;;;;;26.61;24.43;99697.56;106027;1104;78524;-66
2021/04/30 09:32:34;;;;;;;11.00;7.70;;;;;;;26.21;25.17;99702.03;106039;1104;77171;-67
2021/04/30 09:34:42;;;;;;;8.40;6.90;;;;;;;25.67;25.57;99700.05;106030;1104;78175;-65
2021/04/30 09:37:02;;;;;;;11.60;7.10;;;;;;;25.57;25.94;99705.78;106018;1104;77648;-62
2021/04/30 09:39:07;;;;;;;9.00;7.20;;;;;;;25.28;26.08;99707.91;106058;1098;77947;-62
2021/04/30 09:41:15;;;;;;;7.40;6.30;;;;;;;24.93;26.37;99712.91;106018;1104;78719;-67
2021/04/30 09:43:21;;;;;;;8.50;7.60;;;;;;;24.90;26.87;99713.51;106036;1104;79086;-67
2021/04/30 09:45:30;;;;;;;9.20;8.30;;;;;;;24.37;26.57;99704.57;106053;1104;78157;-64
2021/04/30 09:47:37;;;;;;;11.70;9.60;;;;;;;23.99;27.66;99719.38;106045;1104;78265;-63